Diablo, Washington
Current Conditions -  °F | °C
As of 1:15 PM on Saturday 22 Nov 2014 (Local Time) from KAWO Reporting Station
Overcast Overcast  
Wind Chill: 45°   Ceiling: 3400
Heat Index: 48°   Visibility: 10mi
Dew Point: 43°   Wind: 8mph
Humidity: 82%   Direction: 200°SSW
Pressure: 29.86"   Gusts: NA
Location:  48.571°N, 121.561°W
Report Text: KAWO 222115Z AUTO 20007KT 10SM FEW011 BKN034 OVC049 09/06 A2986 RMK AO1
Loading
Personal Weather Stations






























Interactive Weather Map New forecast layout! Learn more

10-Day Weather Forecast

Advertisements
Track Severe Weather on mobile